sensor_id;sensor_type;location;lat;lon;timestamp;P1;durP1;ratioP1;P2;durP2;ratioP2
47882;SDS011;37739;50.350;7.578;2022-12-24T00:02:23;7.30;;;3.20;;
47882;SDS011;37739;50.350;7.578;2022-12-24T00:04:49;7.13;;;2.97;;
47882;SDS011;37739;50.350;7.578;2022-12-24T00:07:16;5.70;;;2.00;;
47882;SDS011;37739;50.350;7.578;2022-12-24T00:09:41;6.37;;;2.30;;
47882;SDS011;37739;50.350;7.578;2022-12-24T00:12:07;6.80;;;2.40;;
47882;SDS011;37739;50.350;7.578;2022-12-24T00:14:32;4.43;;;1.80;;
47882;SDS011;37739;50.350;7.578;2022-12-24T00:16:57;8.90;;;2.90;;
47882;SDS011;37739;50.350;7.578;2022-12-24T00:19:23;6.37;;;2.10;;
47882;SDS011;37739;50.350;7.578;2022-12-24T00:21:50;8.03;;;1.80;;
47882;SDS011;37739;50.350;7.578;2022-12-24T00:24:21;4.10;;;1.93;;
47882;SDS011;37739;50.350;7.578;2022-12-24T00:26:50;7.90;;;1.90;;
47882;SDS011;37739;50.350;7.578;2022-12-24T00:29:21;6.27;;;1.77;;
47882;SDS011;37739;50.350;7.578;2022-12-24T00:31:50;6.13;;;1.93;;
47882;SDS011;37739;50.350;7.578;2022-12-24T00:34:18;5.13;;;1.80;;
47882;SDS011;37739;50.350;7.578;2022-12-24T00:36:48;7.07;;;2.00;;
47882;SDS011;37739;50.350;7.578;2022-12-24T00:39:15;12.60;;;2.07;;
47882;SDS011;37739;50.350;7.578;2022-12-24T00:41:41;8.33;;;2.60;;
47882;SDS011;37739;50.350;7.578;2022-12-24T00:44:09;6.63;;;2.10;;
47882;SDS011;37739;50.350;7.578;2022-12-24T00:46:35;5.70;;;2.20;;
47882;SDS011;37739;50.350;7.578;2022-12-24T00:49:02;5.37;;;2.20;;
47882;SDS011;37739;50.350;7.578;2022-12-24T00:51:30;11.80;;;3.00;;
47882;SDS011;37739;50.350;7.578;2022-12-24T00:54:01;8.30;;;2.17;;
47882;SDS011;37739;50.350;7.578;2022-12-24T00:56:27;6.30;;;1.83;;
47882;SDS011;37739;50.350;7.578;2022-12-24T00:58:56;8.27;;;2.70;;
47882;SDS011;37739;50.350;7.578;2022-12-24T01:01:24;7.73;;;2.03;;
47882;SDS011;37739;50.350;7.578;2022-12-24T01:03:50;7.93;;;1.83;;
47882;SDS011;37739;50.350;7.578;2022-12-24T01:06:18;5.93;;;2.10;;
47882;SDS011;37739;50.350;7.578;2022-12-24T01:08:45;8.40;;;2.30;;
47882;SDS011;37739;50.350;7.578;2022-12-24T01:11:16;8.60;;;2.10;;
47882;SDS011;37739;50.350;7.578;2022-12-24T01:13:42;2.50;;;1.13;;
47882;SDS011;37739;50.350;7.578;2022-12-24T01:16:14;7.43;;;2.10;;
47882;SDS011;37739;50.350;7.578;2022-12-24T01:18:44;7.13;;;2.10;;
47882;SDS011;37739;50.350;7.578;2022-12-24T01:21:10;8.73;;;2.37;;
47882;SDS011;37739;50.350;7.578;2022-12-24T01:23:37;5.83;;;2.13;;
47882;SDS011;37739;50.350;7.578;2022-12-24T01:26:05;8.40;;;1.97;;
47882;SDS011;37739;50.350;7.578;2022-12-24T01:28:30;6.27;;;2.10;;
47882;SDS011;37739;50.350;7.578;2022-12-24T01:30:57;5.20;;;2.00;;
47882;SDS011;37739;50.350;7.578;2022-12-24T01:33:22;7.10;;;2.13;;
47882;SDS011;37739;50.350;7.578;2022-12-24T01:35:47;7.37;;;1.90;;
47882;SDS011;37739;50.350;7.578;2022-12-24T01:38:15;4.90;;;1.93;;
47882;SDS011;37739;50.350;7.578;2022-12-24T01:40:43;7.00;;;2.13;;
47882;SDS011;37739;50.350;7.578;2022-12-24T01:43:30;6.00;;;2.20;;
47882;SDS011;37739;50.350;7.578;2022-12-24T01:45:57;7.53;;;2.80;;
47882;SDS011;37739;50.350;7.578;2022-12-24T01:48:30;6.93;;;2.00;;
47882;SDS011;37739;50.350;7.578;2022-12-24T01:53:42;5.23;;;1.80;;
47882;SDS011;37739;50.350;7.578;2022-12-24T01:56:11;5.10;;;1.97;;
47882;SDS011;37739;50.350;7.578;2022-12-24T01:58:38;6.57;;;2.20;;
47882;SDS011;37739;50.350;7.578;2022-12-24T02:01:09;6.17;;;2.13;;
47882;SDS011;37739;50.350;7.578;2022-12-24T02:03:34;7.03;;;2.17;;
47882;SDS011;37739;50.350;7.578;2022-12-24T02:06:00;6.10;;;2.60;;
47882;SDS011;37739;50.350;7.578;2022-12-24T02:08:28;7.47;;;2.50;;
47882;SDS011;37739;50.350;7.578;2022-12-24T02:11:16;6.90;;;2.00;;
47882;SDS011;37739;50.350;7.578;2022-12-24T02:13:49;9.40;;;2.60;;
47882;SDS011;37739;50.350;7.578;2022-12-24T02:27:18;8.80;;;2.47;;
47882;SDS011;37739;50.350;7.578;2022-12-24T02:35:23;9.27;;;2.80;;
47882;SDS011;37739;50.350;7.578;2022-12-24T02:38:01;6.63;;;2.10;;
47882;SDS011;37739;50.350;7.578;2022-12-24T02:40:39;4.20;;;2.20;;
47882;SDS011;37739;50.350;7.578;2022-12-24T02:43:14;7.80;;;2.40;;
47882;SDS011;37739;50.350;7.578;2022-12-24T02:45:48;6.00;;;2.50;;
47882;SDS011;37739;50.350;7.578;2022-12-24T02:48:17;10.47;;;2.70;;
47882;SDS011;37739;50.350;7.578;2022-12-24T02:50:56;13.87;;;3.37;;
47882;SDS011;37739;50.350;7.578;2022-12-24T02:53:25;8.30;;;2.93;;
47882;SDS011;37739;50.350;7.578;2022-12-24T02:55:56;13.10;;;2.63;;
47882;SDS011;37739;50.350;7.578;2022-12-24T03:01:12;7.30;;;2.70;;
47882;SDS011;37739;50.350;7.578;2022-12-24T03:03:54;9.70;;;3.23;;
47882;SDS011;37739;50.350;7.578;2022-12-24T03:06:44;5.10;;;1.73;;
47882;SDS011;37739;50.350;7.578;2022-12-24T03:09:24;5.03;;;2.07;;
47882;SDS011;37739;50.350;7.578;2022-12-24T03:15:06;9.50;;;3.67;;
47882;SDS011;37739;50.350;7.578;2022-12-24T03:17:33;8.83;;;2.87;;
47882;SDS011;37739;50.350;7.578;2022-12-24T03:20:07;5.83;;;2.23;;
47882;SDS011;37739;50.350;7.578;2022-12-24T03:22:34;5.60;;;2.40;;
47882;SDS011;37739;50.350;7.578;2022-12-24T03:25:00;9.33;;;2.60;;
47882;SDS011;37739;50.350;7.578;2022-12-24T03:27:26;8.47;;;2.60;;
47882;SDS011;37739;50.350;7.578;2022-12-24T03:29:54;6.27;;;2.63;;
47882;SDS011;37739;50.350;7.578;2022-12-24T03:32:24;12.20;;;2.93;;
47882;SDS011;37739;50.350;7.578;2022-12-24T03:34:53;9.63;;;2.83;;
47882;SDS011;37739;50.350;7.578;2022-12-24T03:37:19;5.90;;;2.10;;
47882;SDS011;37739;50.350;7.578;2022-12-24T03:39:44;8.67;;;3.60;;
47882;SDS011;37739;50.350;7.578;2022-12-24T03:42:10;6.70;;;2.40;;
47882;SDS011;37739;50.350;7.578;2022-12-24T03:44:37;9.83;;;2.03;;
47882;SDS011;37739;50.350;7.578;2022-12-24T03:47:05;6.43;;;2.67;;
47882;SDS011;37739;50.350;7.578;2022-12-24T03:49:30;8.33;;;2.23;;
47882;SDS011;37739;50.350;7.578;2022-12-24T03:51:58;6.60;;;2.50;;
47882;SDS011;37739;50.350;7.578;2022-12-24T03:54:26;6.00;;;2.50;;
47882;SDS011;37739;50.350;7.578;2022-12-24T03:56:51;7.33;;;2.63;;
47882;SDS011;37739;50.350;7.578;2022-12-24T03:59:17;7.50;;;2.40;;
47882;SDS011;37739;50.350;7.578;2022-12-24T04:01:42;6.33;;;3.00;;
47882;SDS011;37739;50.350;7.578;2022-12-24T04:04:09;5.77;;;3.17;;
47882;SDS011;37739;50.350;7.578;2022-12-24T04:06:35;6.43;;;2.10;;
47882;SDS011;37739;50.350;7.578;2022-12-24T04:09:00;8.37;;;2.33;;
47882;SDS011;37739;50.350;7.578;2022-12-24T04:11:29;10.10;;;3.20;;
47882;SDS011;37739;50.350;7.578;2022-12-24T04:13:55;4.60;;;2.70;;
47882;SDS011;37739;50.350;7.578;2022-12-24T04:16:20;9.23;;;2.80;;
47882;SDS011;37739;50.350;7.578;2022-12-24T04:18:48;7.03;;;2.03;;
47882;SDS011;37739;50.350;7.578;2022-12-24T04:21:18;10.97;;;2.77;;
47882;SDS011;37739;50.350;7.578;2022-12-24T04:23:43;8.30;;;3.10;;
47882;SDS011;37739;50.350;7.578;2022-12-24T04:26:09;8.50;;;2.93;;
47882;SDS011;37739;50.350;7.578;2022-12-24T04:28:36;12.00;;;3.33;;
47882;SDS011;37739;50.350;7.578;2022-12-24T04:31:03;7.07;;;2.80;;
47882;SDS011;37739;50.350;7.578;2022-12-24T04:33:31;8.77;;;2.60;;
47882;SDS011;37739;50.350;7.578;2022-12-24T04:35:57;7.27;;;2.83;;
47882;SDS011;37739;50.350;7.578;2022-12-24T04:38:28;9.50;;;2.83;;
47882;SDS011;37739;50.350;7.578;2022-12-24T04:40:59;8.20;;;2.90;;
47882;SDS011;37739;50.350;7.578;2022-12-24T04:43:35;14.40;;;2.87;;
47882;SDS011;37739;50.350;7.578;2022-12-24T04:46:05;8.63;;;2.83;;
47882;SDS011;37739;50.350;7.578;2022-12-24T04:48:32;8.17;;;3.30;;
47882;SDS011;37739;50.350;7.578;2022-12-24T04:51:00;6.73;;;3.10;;
47882;SDS011;37739;50.350;7.578;2022-12-24T04:53:29;9.57;;;3.03;;
47882;SDS011;37739;50.350;7.578;2022-12-24T04:55:54;14.30;;;3.60;;
47882;SDS011;37739;50.350;7.578;2022-12-24T04:58:24;13.57;;;3.60;;
47882;SDS011;37739;50.350;7.578;2022-12-24T05:00:52;7.80;;;2.63;;
47882;SDS011;37739;50.350;7.578;2022-12-24T05:03:18;8.67;;;2.90;;
47882;SDS011;37739;50.350;7.578;2022-12-24T05:05:46;7.50;;;3.00;;
47882;SDS011;37739;50.350;7.578;2022-12-24T05:08:14;7.33;;;2.63;;
47882;SDS011;37739;50.350;7.578;2022-12-24T05:10:41;9.60;;;2.80;;
47882;SDS011;37739;50.350;7.578;2022-12-24T05:13:09;11.90;;;3.03;;
47882;SDS011;37739;50.350;7.578;2022-12-24T05:15:37;8.90;;;3.40;;
47882;SDS011;37739;50.350;7.578;2022-12-24T05:18:04;8.83;;;2.77;;
47882;SDS011;37739;50.350;7.578;2022-12-24T05:20:30;11.87;;;3.00;;
47882;SDS011;37739;50.350;7.578;2022-12-24T05:22:57;10.03;;;3.57;;
47882;SDS011;37739;50.350;7.578;2022-12-24T05:25:41;13.87;;;4.07;;
47882;SDS011;37739;50.350;7.578;2022-12-24T05:28:25;10.27;;;2.50;;
47882;SDS011;37739;50.350;7.578;2022-12-24T05:30:53;5.60;;;2.67;;
47882;SDS011;37739;50.350;7.578;2022-12-24T05:33:20;10.40;;;3.03;;
47882;SDS011;37739;50.350;7.578;2022-12-24T05:35:45;7.40;;;2.43;;
47882;SDS011;37739;50.350;7.578;2022-12-24T05:38:14;9.83;;;4.03;;
47882;SDS011;37739;50.350;7.578;2022-12-24T05:40:40;8.00;;;2.80;;
47882;SDS011;37739;50.350;7.578;2022-12-24T05:43:05;9.97;;;3.57;;
47882;SDS011;37739;50.350;7.578;2022-12-24T05:45:30;8.60;;;2.70;;
47882;SDS011;37739;50.350;7.578;2022-12-24T05:47:58;10.23;;;3.03;;
47882;SDS011;37739;50.350;7.578;2022-12-24T05:50:24;11.17;;;3.17;;
47882;SDS011;37739;50.350;7.578;2022-12-24T05:52:49;10.00;;;2.90;;
47882;SDS011;37739;50.350;7.578;2022-12-24T05:55:21;6.57;;;2.70;;
47882;SDS011;37739;50.350;7.578;2022-12-24T05:57:47;9.23;;;3.03;;
47882;SDS011;37739;50.350;7.578;2022-12-24T06:00:14;9.87;;;2.73;;
47882;SDS011;37739;50.350;7.578;2022-12-24T06:02:43;9.67;;;3.70;;
47882;SDS011;37739;50.350;7.578;2022-12-24T06:05:11;8.10;;;2.40;;
47882;SDS011;37739;50.350;7.578;2022-12-24T06:07:38;10.00;;;3.33;;
47882;SDS011;37739;50.350;7.578;2022-12-24T06:10:07;11.00;;;3.37;;
47882;SDS011;37739;50.350;7.578;2022-12-24T06:12:32;14.20;;;3.30;;
47882;SDS011;37739;50.350;7.578;2022-12-24T06:14:58;8.57;;;3.20;;
47882;SDS011;37739;50.350;7.578;2022-12-24T06:17:23;10.80;;;3.77;;
47882;SDS011;37739;50.350;7.578;2022-12-24T06:19:51;14.90;;;3.67;;
47882;SDS011;37739;50.350;7.578;2022-12-24T06:22:16;6.90;;;2.50;;
47882;SDS011;37739;50.350;7.578;2022-12-24T06:24:42;8.17;;;2.83;;
47882;SDS011;37739;50.350;7.578;2022-12-24T06:27:07;10.50;;;3.90;;
47882;SDS011;37739;50.350;7.578;2022-12-24T06:29:32;13.70;;;4.23;;
47882;SDS011;37739;50.350;7.578;2022-12-24T06:31:58;9.20;;;4.13;;
47882;SDS011;37739;50.350;7.578;2022-12-24T06:34:28;12.73;;;3.87;;
47882;SDS011;37739;50.350;7.578;2022-12-24T06:36:55;11.50;;;3.40;;
47882;SDS011;37739;50.350;7.578;2022-12-24T06:39:23;12.13;;;3.27;;
47882;SDS011;37739;50.350;7.578;2022-12-24T06:41:49;10.20;;;3.13;;
47882;SDS011;37739;50.350;7.578;2022-12-24T06:44:15;11.70;;;3.90;;
47882;SDS011;37739;50.350;7.578;2022-12-24T06:46:40;11.23;;;2.90;;
47882;SDS011;37739;50.350;7.578;2022-12-24T06:49:05;8.77;;;3.10;;
47882;SDS011;37739;50.350;7.578;2022-12-24T06:51:30;11.20;;;3.37;;
47882;SDS011;37739;50.350;7.578;2022-12-24T06:54:01;10.10;;;2.97;;
47882;SDS011;37739;50.350;7.578;2022-12-24T06:56:26;8.90;;;2.93;;
47882;SDS011;37739;50.350;7.578;2022-12-24T06:58:51;12.53;;;3.77;;
47882;SDS011;37739;50.350;7.578;2022-12-24T07:01:17;13.13;;;3.10;;
47882;SDS011;37739;50.350;7.578;2022-12-24T07:03:45;14.10;;;3.50;;
47882;SDS011;37739;50.350;7.578;2022-12-24T07:06:15;10.03;;;3.60;;
47882;SDS011;37739;50.350;7.578;2022-12-24T07:08:43;10.43;;;3.37;;
47882;SDS011;37739;50.350;7.578;2022-12-24T07:11:09;9.30;;;3.43;;
47882;SDS011;37739;50.350;7.578;2022-12-24T07:13:36;6.60;;;3.07;;
47882;SDS011;37739;50.350;7.578;2022-12-24T07:16:02;7.53;;;2.97;;
47882;SDS011;37739;50.350;7.578;2022-12-24T07:18:31;10.97;;;2.77;;
47882;SDS011;37739;50.350;7.578;2022-12-24T07:20:59;13.87;;;3.20;;
47882;SDS011;37739;50.350;7.578;2022-12-24T07:23:30;12.77;;;3.83;;
47882;SDS011;37739;50.350;7.578;2022-12-24T07:25:59;8.80;;;3.07;;
47882;SDS011;37739;50.350;7.578;2022-12-24T07:28:27;9.77;;;3.13;;
47882;SDS011;37739;50.350;7.578;2022-12-24T07:30:54;8.10;;;3.30;;
47882;SDS011;37739;50.350;7.578;2022-12-24T07:33:20;8.50;;;3.23;;
47882;SDS011;37739;50.350;7.578;2022-12-24T07:35:45;11.43;;;3.30;;
47882;SDS011;37739;50.350;7.578;2022-12-24T07:38:11;10.03;;;3.33;;
47882;SDS011;37739;50.350;7.578;2022-12-24T07:40:38;8.37;;;2.77;;
47882;SDS011;37739;50.350;7.578;2022-12-24T07:43:03;7.50;;;2.73;;
47882;SDS011;37739;50.350;7.578;2022-12-24T07:45:29;11.33;;;2.90;;
47882;SDS011;37739;50.350;7.578;2022-12-24T07:47:57;12.20;;;3.33;;
47882;SDS011;37739;50.350;7.578;2022-12-24T07:50:22;13.73;;;3.03;;
47882;SDS011;37739;50.350;7.578;2022-12-24T07:52:52;11.77;;;3.20;;
47882;SDS011;37739;50.350;7.578;2022-12-24T07:55:19;11.20;;;3.40;;
47882;SDS011;37739;50.350;7.578;2022-12-24T07:57:45;12.80;;;3.57;;
47882;SDS011;37739;50.350;7.578;2022-12-24T08:00:12;9.00;;;2.87;;
47882;SDS011;37739;50.350;7.578;2022-12-24T08:02:38;12.03;;;2.87;;
47882;SDS011;37739;50.350;7.578;2022-12-24T08:05:06;9.57;;;3.00;;
47882;SDS011;37739;50.350;7.578;2022-12-24T08:07:31;15.00;;;4.00;;
47882;SDS011;37739;50.350;7.578;2022-12-24T08:09:57;11.00;;;3.47;;
47882;SDS011;37739;50.350;7.578;2022-12-24T08:12:25;11.57;;;4.30;;
47882;SDS011;37739;50.350;7.578;2022-12-24T08:14:52;9.70;;;3.77;;
47882;SDS011;37739;50.350;7.578;2022-12-24T08:17:22;5.97;;;2.63;;
47882;SDS011;37739;50.350;7.578;2022-12-24T08:19:50;9.20;;;3.43;;
47882;SDS011;37739;50.350;7.578;2022-12-24T08:22:15;10.57;;;3.13;;
47882;SDS011;37739;50.350;7.578;2022-12-24T08:24:41;9.80;;;3.33;;
47882;SDS011;37739;50.350;7.578;2022-12-24T08:27:08;9.80;;;3.70;;
47882;SDS011;37739;50.350;7.578;2022-12-24T08:29:36;10.00;;;3.70;;
47882;SDS011;37739;50.350;7.578;2022-12-24T08:32:03;9.47;;;3.80;;
47882;SDS011;37739;50.350;7.578;2022-12-24T08:34:29;8.87;;;3.40;;
47882;SDS011;37739;50.350;7.578;2022-12-24T08:36:56;9.90;;;4.17;;
47882;SDS011;37739;50.350;7.578;2022-12-24T08:39:24;7.77;;;3.30;;
47882;SDS011;37739;50.350;7.578;2022-12-24T08:41:51;9.50;;;4.13;;
47882;SDS011;37739;50.350;7.578;2022-12-24T08:44:17;7.97;;;3.47;;
47882;SDS011;37739;50.350;7.578;2022-12-24T08:46:45;10.90;;;3.33;;
47882;SDS011;37739;50.350;7.578;2022-12-24T08:49:13;9.87;;;3.80;;
47882;SDS011;37739;50.350;7.578;2022-12-24T08:51:38;6.60;;;2.50;;
47882;SDS011;37739;50.350;7.578;2022-12-24T08:54:06;6.33;;;2.77;;
47882;SDS011;37739;50.350;7.578;2022-12-24T08:56:32;7.43;;;3.00;;
47882;SDS011;37739;50.350;7.578;2022-12-24T08:59:00;15.50;;;4.13;;
47882;SDS011;37739;50.350;7.578;2022-12-24T09:01:25;13.30;;;4.30;;
47882;SDS011;37739;50.350;7.578;2022-12-24T09:03:53;10.20;;;3.80;;
47882;SDS011;37739;50.350;7.578;2022-12-24T09:06:20;9.17;;;4.00;;
47882;SDS011;37739;50.350;7.578;2022-12-24T09:08:47;11.73;;;3.80;;
47882;SDS011;37739;50.350;7.578;2022-12-24T09:11:15;17.73;;;4.50;;
47882;SDS011;37739;50.350;7.578;2022-12-24T09:13:42;9.57;;;3.53;;
47882;SDS011;37739;50.350;7.578;2022-12-24T09:16:11;9.23;;;4.43;;
47882;SDS011;37739;50.350;7.578;2022-12-24T09:18:37;14.73;;;5.60;;
47882;SDS011;37739;50.350;7.578;2022-12-24T09:21:07;15.70;;;5.87;;
47882;SDS011;37739;50.350;7.578;2022-12-24T09:23:35;11.30;;;4.80;;
47882;SDS011;37739;50.350;7.578;2022-12-24T09:26:13;14.70;;;5.07;;
47882;SDS011;37739;50.350;7.578;2022-12-24T09:28:45;10.47;;;4.43;;
47882;SDS011;37739;50.350;7.578;2022-12-24T09:31:11;10.07;;;3.43;;
47882;SDS011;37739;50.350;7.578;2022-12-24T09:33:37;15.13;;;4.10;;
47882;SDS011;37739;50.350;7.578;2022-12-24T09:36:07;11.30;;;3.40;;
47882;SDS011;37739;50.350;7.578;2022-12-24T09:38:33;10.93;;;3.90;;
47882;SDS011;37739;50.350;7.578;2022-12-24T09:40:59;7.73;;;3.00;;
47882;SDS011;37739;50.350;7.578;2022-12-24T09:43:26;9.80;;;3.70;;
47882;SDS011;37739;50.350;7.578;2022-12-24T09:46:03;5.83;;;2.87;;
47882;SDS011;37739;50.350;7.578;2022-12-24T09:48:36;11.53;;;3.63;;
47882;SDS011;37739;50.350;7.578;2022-12-24T09:51:10;9.87;;;3.40;;
47882;SDS011;37739;50.350;7.578;2022-12-24T09:53:54;11.30;;;3.03;;
47882;SDS011;37739;50.350;7.578;2022-12-24T09:56:42;6.63;;;3.40;;
47882;SDS011;37739;50.350;7.578;2022-12-24T09:59:17;9.17;;;2.97;;
47882;SDS011;37739;50.350;7.578;2022-12-24T10:01:46;9.77;;;3.97;;
47882;SDS011;37739;50.350;7.578;2022-12-24T10:04:15;9.53;;;3.40;;
47882;SDS011;37739;50.350;7.578;2022-12-24T10:06:53;11.47;;;3.73;;
47882;SDS011;37739;50.350;7.578;2022-12-24T10:09:25;8.67;;;3.87;;
47882;SDS011;37739;50.350;7.578;2022-12-24T10:12:09;12.70;;;3.80;;
47882;SDS011;37739;50.350;7.578;2022-12-24T10:17:45;7.63;;;3.07;;
47882;SDS011;37739;50.350;7.578;2022-12-24T10:28:15;7.33;;;2.73;;
47882;SDS011;37739;50.350;7.578;2022-12-24T10:30:46;12.97;;;3.50;;
47882;SDS011;37739;50.350;7.578;2022-12-24T10:33:15;8.20;;;2.80;;
47882;SDS011;37739;50.350;7.578;2022-12-24T10:35:48;11.07;;;3.50;;
47882;SDS011;37739;50.350;7.578;2022-12-24T10:38:17;6.90;;;3.17;;
47882;SDS011;37739;50.350;7.578;2022-12-24T10:40:46;8.90;;;4.10;;
47882;SDS011;37739;50.350;7.578;2022-12-24T10:43:18;12.87;;;3.57;;
47882;SDS011;37739;50.350;7.578;2022-12-24T10:45:52;6.17;;;3.10;;
47882;SDS011;37739;50.350;7.578;2022-12-24T10:48:23;9.17;;;3.20;;
47882;SDS011;37739;50.350;7.578;2022-12-24T10:50:57;7.87;;;2.90;;
47882;SDS011;37739;50.350;7.578;2022-12-24T10:55:59;8.23;;;3.33;;
47882;SDS011;37739;50.350;7.578;2022-12-24T10:58:29;9.97;;;3.80;;
47882;SDS011;37739;50.350;7.578;2022-12-24T11:00:55;12.13;;;3.73;;
47882;SDS011;37739;50.350;7.578;2022-12-24T11:03:22;14.80;;;4.27;;
47882;SDS011;37739;50.350;7.578;2022-12-24T11:06:01;9.17;;;3.20;;
47882;SDS011;37739;50.350;7.578;2022-12-24T11:08:30;13.37;;;4.10;;
47882;SDS011;37739;50.350;7.578;2022-12-24T11:10:59;11.80;;;3.70;;
47882;SDS011;37739;50.350;7.578;2022-12-24T11:16:07;10.00;;;4.00;;
47882;SDS011;37739;50.350;7.578;2022-12-24T11:18:37;8.57;;;3.30;;
47882;SDS011;37739;50.350;7.578;2022-12-24T11:21:17;9.00;;;3.27;;
47882;SDS011;37739;50.350;7.578;2022-12-24T11:23:50;8.80;;;3.40;;
47882;SDS011;37739;50.350;7.578;2022-12-24T11:26:26;8.80;;;3.57;;
47882;SDS011;37739;50.350;7.578;2022-12-24T11:31:40;15.77;;;3.67;;
47882;SDS011;37739;50.350;7.578;2022-12-24T11:36:52;9.37;;;3.50;;
47882;SDS011;37739;50.350;7.578;2022-12-24T11:39:24;9.90;;;3.07;;
47882;SDS011;37739;50.350;7.578;2022-12-24T11:41:50;7.27;;;2.37;;
47882;SDS011;37739;50.350;7.578;2022-12-24T11:44:26;5.13;;;2.50;;
47882;SDS011;37739;50.350;7.578;2022-12-24T11:46:53;7.90;;;3.00;;
47882;SDS011;37739;50.350;7.578;2022-12-24T11:51:59;9.37;;;3.30;;
47882;SDS011;37739;50.350;7.578;2022-12-24T11:54:49;9.47;;;3.40;;
47882;SDS011;37739;50.350;7.578;2022-12-24T11:57:27;15.03;;;3.40;;
47882;SDS011;37739;50.350;7.578;2022-12-24T11:59:59;7.37;;;3.10;;
47882;SDS011;37739;50.350;7.578;2022-12-24T12:05:03;11.30;;;3.57;;
47882;SDS011;37739;50.350;7.578;2022-12-24T12:07:36;10.77;;;3.23;;
47882;SDS011;37739;50.350;7.578;2022-12-24T12:10:06;9.80;;;3.20;;
47882;SDS011;37739;50.350;7.578;2022-12-24T12:12:41;7.53;;;3.47;;
47882;SDS011;37739;50.350;7.578;2022-12-24T12:15:17;7.90;;;3.10;;
47882;SDS011;37739;50.350;7.578;2022-12-24T12:17:53;10.87;;;3.40;;
47882;SDS011;37739;50.350;7.578;2022-12-24T12:20:25;8.90;;;3.00;;
47882;SDS011;37739;50.350;7.578;2022-12-24T12:28:31;7.23;;;3.20;;
47882;SDS011;37739;50.350;7.578;2022-12-24T12:31:01;7.30;;;2.90;;
47882;SDS011;37739;50.350;7.578;2022-12-24T12:33:47;8.23;;;3.10;;
47882;SDS011;37739;50.350;7.578;2022-12-24T12:36:18;7.30;;;2.53;;
47882;SDS011;37739;50.350;7.578;2022-12-24T12:38:51;10.13;;;3.37;;
47882;SDS011;37739;50.350;7.578;2022-12-24T12:44:03;6.63;;;2.83;;
47882;SDS011;37739;50.350;7.578;2022-12-24T12:49:27;11.13;;;3.40;;
47882;SDS011;37739;50.350;7.578;2022-12-24T12:52:10;9.40;;;2.90;;
47882;SDS011;37739;50.350;7.578;2022-12-24T12:55:16;6.37;;;3.17;;
47882;SDS011;37739;50.350;7.578;2022-12-24T12:58:03;8.83;;;2.80;;
47882;SDS011;37739;50.350;7.578;2022-12-24T13:00:42;6.33;;;3.03;;
47882;SDS011;37739;50.350;7.578;2022-12-24T13:11:38;10.80;;;3.53;;
47882;SDS011;37739;50.350;7.578;2022-12-24T13:14:19;7.73;;;2.37;;
47882;SDS011;37739;50.350;7.578;2022-12-24T13:17:41;9.23;;;3.13;;
47882;SDS011;37739;50.350;7.578;2022-12-24T13:20:16;5.47;;;2.43;;
47882;SDS011;37739;50.350;7.578;2022-12-24T13:25:39;8.03;;;3.10;;
47882;SDS011;37739;50.350;7.578;2022-12-24T13:30:44;9.97;;;4.10;;
47882;SDS011;37739;50.350;7.578;2022-12-24T13:36:01;9.20;;;4.00;;
47882;SDS011;37739;50.350;7.578;2022-12-24T13:38:39;6.60;;;2.90;;
47882;SDS011;37739;50.350;7.578;2022-12-24T13:49:40;9.07;;;2.83;;
47882;SDS011;37739;50.350;7.578;2022-12-24T13:54:40;6.77;;;2.50;;
47882;SDS011;37739;50.350;7.578;2022-12-24T14:03:00;8.30;;;3.23;;
47882;SDS011;37739;50.350;7.578;2022-12-24T14:05:37;13.00;;;3.50;;
47882;SDS011;37739;50.350;7.578;2022-12-24T14:13:50;6.73;;;3.10;;
47882;SDS011;37739;50.350;7.578;2022-12-24T14:16:28;10.97;;;3.20;;
47882;SDS011;37739;50.350;7.578;2022-12-24T14:21:27;9.90;;;3.00;;
47882;SDS011;37739;50.350;7.578;2022-12-24T14:26:51;9.27;;;3.90;;
47882;SDS011;37739;50.350;7.578;2022-12-24T14:31:57;9.47;;;3.30;;
47882;SDS011;37739;50.350;7.578;2022-12-24T14:34:28;7.20;;;3.60;;
47882;SDS011;37739;50.350;7.578;2022-12-24T14:36:53;10.80;;;4.60;;
47882;SDS011;37739;50.350;7.578;2022-12-24T14:39:25;9.43;;;3.57;;
47882;SDS011;37739;50.350;7.578;2022-12-24T14:41:55;7.90;;;3.10;;
47882;SDS011;37739;50.350;7.578;2022-12-24T14:45:06;8.80;;;3.07;;
47882;SDS011;37739;50.350;7.578;2022-12-24T14:47:34;9.80;;;3.30;;
47882;SDS011;37739;50.350;7.578;2022-12-24T14:55:52;9.30;;;3.90;;
47882;SDS011;37739;50.350;7.578;2022-12-24T14:58:37;7.47;;;4.43;;
47882;SDS011;37739;50.350;7.578;2022-12-24T15:04:25;9.00;;;4.63;;
47882;SDS011;37739;50.350;7.578;2022-12-24T15:06:49;8.70;;;3.97;;
47882;SDS011;37739;50.350;7.578;2022-12-24T15:09:24;8.43;;;4.10;;
47882;SDS011;37739;50.350;7.578;2022-12-24T15:11:56;10.40;;;5.20;;
47882;SDS011;37739;50.350;7.578;2022-12-24T15:14:24;11.17;;;6.53;;
47882;SDS011;37739;50.350;7.578;2022-12-24T15:17:00;12.40;;;8.00;;
47882;SDS011;37739;50.350;7.578;2022-12-24T15:19:28;9.93;;;5.33;;
47882;SDS011;37739;50.350;7.578;2022-12-24T15:21:58;15.20;;;5.40;;
47882;SDS011;37739;50.350;7.578;2022-12-24T15:24:28;14.07;;;5.00;;
47882;SDS011;37739;50.350;7.578;2022-12-24T15:27:10;8.77;;;4.10;;
47882;SDS011;37739;50.350;7.578;2022-12-24T15:29:41;11.37;;;3.87;;
47882;SDS011;37739;50.350;7.578;2022-12-24T15:32:09;10.03;;;3.43;;
47882;SDS011;37739;50.350;7.578;2022-12-24T15:34:38;14.70;;;5.37;;
47882;SDS011;37739;50.350;7.578;2022-12-24T15:37:15;12.90;;;5.27;;
47882;SDS011;37739;50.350;7.578;2022-12-24T15:39:42;11.50;;;4.73;;
47882;SDS011;37739;50.350;7.578;2022-12-24T15:42:09;11.10;;;5.33;;
47882;SDS011;37739;50.350;7.578;2022-12-24T15:44:54;11.83;;;5.07;;
47882;SDS011;37739;50.350;7.578;2022-12-24T15:47:23;9.30;;;4.33;;
47882;SDS011;37739;50.350;7.578;2022-12-24T15:49:52;10.43;;;4.33;;
47882;SDS011;37739;50.350;7.578;2022-12-24T15:52:19;12.33;;;4.83;;
47882;SDS011;37739;50.350;7.578;2022-12-24T15:54:51;8.57;;;3.97;;
47882;SDS011;37739;50.350;7.578;2022-12-24T15:59:55;7.43;;;3.70;;
47882;SDS011;37739;50.350;7.578;2022-12-24T16:02:37;8.73;;;4.17;;
47882;SDS011;37739;50.350;7.578;2022-12-24T16:13:09;7.50;;;3.53;;
47882;SDS011;37739;50.350;7.578;2022-12-24T16:15:41;9.20;;;3.50;;
47882;SDS011;37739;50.350;7.578;2022-12-24T16:18:15;9.60;;;3.30;;
47882;SDS011;37739;50.350;7.578;2022-12-24T16:20:54;11.07;;;4.03;;
47882;SDS011;37739;50.350;7.578;2022-12-24T16:23:22;10.03;;;3.90;;
47882;SDS011;37739;50.350;7.578;2022-12-24T16:25:51;9.93;;;3.83;;
47882;SDS011;37739;50.350;7.578;2022-12-24T16:28:18;8.97;;;3.43;;
47882;SDS011;37739;50.350;7.578;2022-12-24T16:30:45;10.70;;;3.10;;
47882;SDS011;37739;50.350;7.578;2022-12-24T16:33:14;9.07;;;3.70;;
47882;SDS011;37739;50.350;7.578;2022-12-24T16:35:44;9.40;;;3.83;;
47882;SDS011;37739;50.350;7.578;2022-12-24T16:38:10;10.33;;;3.53;;
47882;SDS011;37739;50.350;7.578;2022-12-24T16:40:37;5.60;;;3.80;;
47882;SDS011;37739;50.350;7.578;2022-12-24T16:43:03;9.13;;;5.00;;
47882;SDS011;37739;50.350;7.578;2022-12-24T16:45:47;8.37;;;4.13;;
47882;SDS011;37739;50.350;7.578;2022-12-24T16:48:18;13.20;;;3.70;;
47882;SDS011;37739;50.350;7.578;2022-12-24T16:50:48;7.60;;;3.57;;
47882;SDS011;37739;50.350;7.578;2022-12-24T16:53:14;9.70;;;3.10;;
47882;SDS011;37739;50.350;7.578;2022-12-24T16:55:42;10.60;;;3.20;;
47882;SDS011;37739;50.350;7.578;2022-12-24T16:58:12;5.80;;;3.33;;
47882;SDS011;37739;50.350;7.578;2022-12-24T17:00:39;8.00;;;3.80;;
47882;SDS011;37739;50.350;7.578;2022-12-24T17:03:05;8.33;;;4.00;;
47882;SDS011;37739;50.350;7.578;2022-12-24T17:05:36;9.10;;;3.90;;
47882;SDS011;37739;50.350;7.578;2022-12-24T17:08:04;9.97;;;3.50;;
47882;SDS011;37739;50.350;7.578;2022-12-24T17:10:30;9.70;;;3.67;;